KDVN/DVN METAR and TAF weather

Enter ICAO airport designator
Station Type Date Time Source
KDVN METAR 2019/02/21 11:52 UTC NOAA

KDVN 211152Z AUTO 27008KT 8SM CLR M07/M11 A3011 RMK AO2 SLP204 T10721106 11044 21078 53027


Station Type Date Time Source
KDVN Decoded METAR 2019/02/21 11:52 UTC NOAA

DAVENPORT MUNICIPAL AIRPORT, IA, United States (KDVN) 41-37N 90-35W 228M
Feb 21, 2019 - 06:52 AM EST / 2019.02.21 1152 UTC
Wind: from the W (270 degrees) at 9 MPH (8 KT):0
Visibility: 8 mile(s):0
Sky conditions: clear
Temperature: 19.0 F (-7.2 C)
Windchill: 8 F (-13 C):1
Dew Point: 12.9 F (-10.6 C)
Relative Humidity: 76%
Pressure (altimeter): 30.11 in. Hg (1019 hPa)
Pressure tendency: 0.08 inches (2.7 hPa) higher than three hours ago
ob: KDVN 211152Z AUTO 27008KT 8SM CLR M07/M11 A3011 RMK AO2 SLP204 T10721106 11044 21078 53027
cycle: 12

Station Type Date Time Source
KDVN TAF UTC NOAA

Error!


Example: see airport list